Time;durP1;ratioP1;P1;durP2;ratioP2;P2;SDS_P1;SDS_P2;PMS_P1;PMS_P2;Temp;Humidity;BMP_temperature;BMP_pressure;BME280_temperature;BME280_humidity;BME280_pressure;Samples;Min_cycle;Max_cycle;Signal;HPM_P1;HPM_P2
2023/12/02 00:01:56;;;;;;;13.17;7.87;;;;;;;;;;4938581;29;20540;-82
2023/12/02 00:05:00;;;;;;;10.93;7.70;;;;;;;;;;4931101;29;20938;-81
2023/12/02 00:08:04;;;;;;;10.87;7.37;;;;;;;;;;4930349;29;20965;-82
2023/12/02 00:11:10;;;;;;;13.87;8.97;;;;;;;;;;4941270;29;20545;-82
2023/12/02 00:14:14;;;;;;;12.43;8.53;;;;;;;;;;4942615;29;20537;-82
2023/12/02 00:17:19;;;;;;;11.77;8.17;;;;;;;;;;4942026;29;20627;-82
2023/12/02 00:20:23;;;;;;;15.57;8.40;;;;;;;;;;4991196;23;20689;-84
2023/12/02 00:23:27;;;;;;;13.03;8.43;;;;;;;;;;4980601;28;21149;-84
2023/12/02 00:26:32;;;;;;;11.20;7.73;;;;;;;;;;4980926;28;20550;-84
2023/12/02 00:29:36;;;;;;;12.70;8.27;;;;;;;;;;4968676;28;20559;-83
2023/12/02 00:32:40;;;;;;;12.00;8.00;;;;;;;;;;4949464;29;20555;-83
2023/12/02 00:35:44;;;;;;;13.17;8.47;;;;;;;;;;4960998;29;20897;-83
2023/12/02 00:38:49;;;;;;;14.10;7.77;;;;;;;;;;4960755;29;20571;-84
2023/12/02 00:41:53;;;;;;;12.87;8.50;;;;;;;;;;4960787;29;20618;-83
2023/12/02 00:44:57;;;;;;;11.03;7.37;;;;;;;;;;4960550;29;20595;-83
2023/12/02 00:48:01;;;;;;;14.17;8.57;;;;;;;;;;4960549;29;20568;-83
2023/12/02 00:51:06;;;;;;;12.27;8.17;;;;;;;;;;4960445;29;20626;-84
2023/12/02 00:54:10;;;;;;;14.30;8.90;;;;;;;;;;4949257;29;20544;-83
2023/12/02 00:57:14;;;;;;;14.23;8.97;;;;;;;;;;4961618;29;20559;-83
2023/12/02 01:00:18;;;;;;;13.27;8.73;;;;;;;;;;4949665;29;20615;-82
2023/12/02 01:03:22;;;;;;;12.33;8.23;;;;;;;;;;4961457;29;20555;-83
2023/12/02 01:06:26;;;;;;;12.93;8.87;;;;;;;;;;4961037;29;20890;-83
2023/12/02 01:09:30;;;;;;;11.97;8.63;;;;;;;;;;4959864;29;20551;-83
2023/12/02 01:12:35;;;;;;;12.47;8.30;;;;;;;;;;4948338;29;20559;-82
2023/12/02 01:15:39;;;;;;;12.83;7.77;;;;;;;;;;4959065;28;20882;-82
2023/12/02 01:18:43;;;;;;;10.70;7.53;;;;;;;;;;4959708;29;20559;-82
2023/12/02 01:21:47;;;;;;;10.60;6.83;;;;;;;;;;4948452;29;20638;-82
2023/12/02 01:24:51;;;;;;;11.47;8.00;;;;;;;;;;4961634;29;20602;-83
2023/12/02 01:27:56;;;;;;;11.77;7.47;;;;;;;;;;4961304;29;20567;-83
2023/12/02 01:31:00;;;;;;;12.20;8.47;;;;;;;;;;4964550;29;20631;-82
2023/12/02 01:34:05;;;;;;;13.13;8.23;;;;;;;;;;4961686;29;20560;-81
2023/12/02 01:37:09;;;;;;;13.70;8.73;;;;;;;;;;4962256;29;20539;-82
2023/12/02 01:40:13;;;;;;;13.37;8.37;;;;;;;;;;4953732;29;20618;-83
2023/12/02 01:43:25;;;;;;;13.87;8.50;;;;;;;;;;4965515;29;20547;-84
2023/12/02 01:46:29;;;;;;;13.87;8.40;;;;;;;;;;4975095;29;20532;-83
2023/12/02 01:49:36;;;;;;;14.17;9.50;;;;;;;;;;4965906;29;20552;-81
2023/12/02 01:52:41;;;;;;;13.23;8.93;;;;;;;;;;4952719;29;20540;-81
2023/12/02 01:55:46;;;;;;;12.30;8.47;;;;;;;;;;4964738;29;20555;-81
2023/12/02 01:58:51;;;;;;;13.07;8.97;;;;;;;;;;4964430;29;20544;-81
2023/12/02 02:01:55;;;;;;;13.63;8.83;;;;;;;;;;4965960;29;20635;-82
2023/12/02 02:04:59;;;;;;;13.20;8.57;;;;;;;;;;4965150;29;20599;-81
2023/12/02 02:08:04;;;;;;;15.10;9.00;;;;;;;;;;4966813;29;20548;-80
2023/12/02 02:11:08;;;;;;;13.93;8.67;;;;;;;;;;4966978;29;20689;-80
2023/12/02 02:14:12;;;;;;;16.77;9.83;;;;;;;;;;4968330;29;20540;-82
2023/12/02 02:17:17;;;;;;;15.70;9.87;;;;;;;;;;4966492;29;20559;-80
2023/12/02 02:20:21;;;;;;;14.67;9.07;;;;;;;;;;4967621;28;20650;-83
2023/12/02 02:23:25;;;;;;;13.70;9.13;;;;;;;;;;4969143;29;20552;-83
2023/12/02 02:26:30;;;;;;;15.23;9.73;;;;;;;;;;4968959;28;20556;-81
2023/12/02 02:29:34;;;;;;;13.50;8.70;;;;;;;;;;4968815;29;20544;-83
2023/12/02 02:32:39;;;;;;;16.57;9.90;;;;;;;;;;4968114;29;20598;-83
2023/12/02 02:35:43;;;;;;;14.57;9.17;;;;;;;;;;4968702;29;20547;-83
2023/12/02 02:38:47;;;;;;;16.87;10.83;;;;;;;;;;4968731;29;20542;-82
2023/12/02 02:41:51;;;;;;;16.23;9.53;;;;;;;;;;4953797;29;20618;-81
2023/12/02 02:44:56;;;;;;;19.07;10.57;;;;;;;;;;4966163;29;20591;-81
2023/12/02 02:48:00;;;;;;;16.37;10.30;;;;;;;;;;4964935;29;20563;-82
2023/12/02 02:51:05;;;;;;;15.80;10.33;;;;;;;;;;4954538;29;20625;-82
2023/12/02 02:54:08;;;;;;;15.93;10.03;;;;;;;;;;4954900;29;20546;-82
2023/12/02 02:57:13;;;;;;;18.73;11.23;;;;;;;;;;4966432;29;20559;-83
2023/12/02 03:00:18;;;;;;;18.30;12.00;;;;;;;;;;4954648;29;21019;-83
2023/12/02 03:03:22;;;;;;;19.53;11.30;;;;;;;;;;4965256;29;20558;-83
2023/12/02 03:06:27;;;;;;;19.53;11.30;;;;;;;;;;4964950;29;20540;-83
2023/12/02 03:09:30;;;;;;;19.03;12.23;;;;;;;;;;4965087;29;20554;-83
2023/12/02 03:12:35;;;;;;;18.23;11.37;;;;;;;;;;4953182;29;20567;-83
2023/12/02 03:15:39;;;;;;;20.33;11.87;;;;;;;;;;4965520;29;20543;-83
2023/12/02 03:18:43;;;;;;;21.50;11.83;;;;;;;;;;4964333;29;20562;-82
2023/12/02 03:21:47;;;;;;;21.20;12.97;;;;;;;;;;4964114;28;20657;-83
2023/12/02 03:24:52;;;;;;;21.10;12.23;;;;;;;;;;4953529;29;21172;-84
2023/12/02 03:27:56;;;;;;;20.97;12.07;;;;;;;;;;4965056;29;20562;-82
2023/12/02 03:31:01;;;;;;;19.13;12.63;;;;;;;;;;4963605;29;20633;-83
2023/12/02 03:34:05;;;;;;;22.13;12.73;;;;;;;;;;4964020;29;20558;-83
2023/12/02 03:37:10;;;;;;;20.50;12.70;;;;;;;;;;4962684;28;20555;-83
2023/12/02 03:40:14;;;;;;;22.37;12.50;;;;;;;;;;4963520;29;20633;-84
2023/12/02 03:43:19;;;;;;;24.50;13.17;;;;;;;;;;4964100;29;20563;-83
2023/12/02 03:46:23;;;;;;;20.80;13.20;;;;;;;;;;4964369;29;20603;-83
2023/12/02 03:49:27;;;;;;;20.73;12.27;;;;;;;;;;4963836;29;21117;-83
2023/12/02 03:52:31;;;;;;;20.07;12.23;;;;;;;;;;4962930;29;20574;-83
2023/12/02 03:55:36;;;;;;;22.97;13.90;;;;;;;;;;4961826;29;20558;-83
2023/12/02 03:58:40;;;;;;;23.23;13.07;;;;;;;;;;4963465;29;20551;-83
2023/12/02 04:01:44;;;;;;;21.23;13.33;;;;;;;;;;4964039;29;20626;-83
2023/12/02 04:04:48;;;;;;;21.77;13.70;;;;;;;;;;4963194;29;20971;-83
2023/12/02 04:07:53;;;;;;;23.83;13.90;;;;;;;;;;4961380;29;20547;-84
2023/12/02 04:10:57;;;;;;;23.70;13.70;;;;;;;;;;4962141;29;20631;-83
2023/12/02 04:14:01;;;;;;;23.20;13.63;;;;;;;;;;4962048;29;21098;-83
2023/12/02 04:17:06;;;;;;;20.33;12.50;;;;;;;;;;4950597;29;20538;-83
2023/12/02 04:20:15;;;;;;;24.23;13.00;;;;;;;;;;4960180;28;20649;-83
2023/12/02 04:23:19;;;;;;;20.73;12.60;;;;;;;;;;4961256;29;20612;-82
2023/12/02 04:26:23;;;;;;;20.43;11.90;;;;;;;;;;4948413;29;20603;-84
2023/12/02 04:29:27;;;;;;;21.60;13.00;;;;;;;;;;4959922;29;20555;-82
2023/12/02 04:32:32;;;;;;;23.13;12.87;;;;;;;;;;4959565;29;20563;-83
2023/12/02 04:35:36;;;;;;;22.73;13.20;;;;;;;;;;4959300;29;20570;-82
2023/12/02 04:38:41;;;;;;;24.17;13.40;;;;;;;;;;4947750;29;20551;-82
2023/12/02 04:41:45;;;;;;;21.13;11.90;;;;;;;;;;4958011;29;20992;-82
2023/12/02 04:44:49;;;;;;;21.00;12.97;;;;;;;;;;4959021;29;20610;-84
2023/12/02 04:47:54;;;;;;;22.27;12.97;;;;;;;;;;4959895;29;20928;-82
2023/12/02 04:50:58;;;;;;;21.60;12.70;;;;;;;;;;4952242;29;20630;-82
2023/12/02 04:54:02;;;;;;;19.27;11.63;;;;;;;;;;4952133;29;20554;-82
2023/12/02 04:57:06;;;;;;;19.73;12.10;;;;;;;;;;4951666;29;20566;-83
2023/12/02 05:00:14;;;;;;;19.23;11.90;;;;;;;;;;4962870;29;20642;-83
2023/12/02 05:03:18;;;;;;;18.67;11.47;;;;;;;;;;4963139;29;20562;-82
2023/12/02 05:06:22;;;;;;;19.77;11.90;;;;;;;;;;4961881;29;20598;-81
2023/12/02 05:09:26;;;;;;;20.50;12.07;;;;;;;;;;4961372;29;20560;-82
2023/12/02 05:12:31;;;;;;;21.00;12.63;;;;;;;;;;4949632;29;20932;-82
2023/12/02 05:15:35;;;;;;;18.73;11.67;;;;;;;;;;4961518;29;20542;-82
2023/12/02 05:18:42;;;;;;;18.97;11.13;;;;;;;;;;4960897;29;20562;-83
2023/12/02 05:21:46;;;;;;;17.93;10.77;;;;;;;;;;4961306;28;20653;-83
2023/12/02 05:24:51;;;;;;;16.97;10.50;;;;;;;;;;4961909;29;20566;-81
2023/12/02 05:27:56;;;;;;;15.67;10.50;;;;;;;;;;4961420;29;20554;-81
2023/12/02 05:31:00;;;;;;;15.57;10.13;;;;;;;;;;4960826;29;20633;-82
2023/12/02 05:34:04;;;;;;;17.73;10.43;;;;;;;;;;4961303;29;20546;-83
2023/12/02 05:37:08;;;;;;;15.87;9.60;;;;;;;;;;4961439;29;21092;-82
2023/12/02 05:40:13;;;;;;;14.00;9.50;;;;;;;;;;4961874;29;20649;-82
2023/12/02 05:43:17;;;;;;;16.77;9.80;;;;;;;;;;4949459;29;20566;-81
2023/12/02 05:46:21;;;;;;;17.20;9.97;;;;;;;;;;4961102;29;20592;-83
2023/12/02 05:49:25;;;;;;;16.77;9.83;;;;;;;;;;4960629;29;20555;-83
2023/12/02 05:52:29;;;;;;;18.03;9.77;;;;;;;;;;4961538;29;20552;-81
2023/12/02 05:55:34;;;;;;;16.97;10.27;;;;;;;;;;4959678;29;20571;-83
2023/12/02 05:58:38;;;;;;;14.93;9.70;;;;;;;;;;4959768;29;20559;-81
2023/12/02 06:01:42;;;;;;;15.13;10.07;;;;;;;;;;4958277;28;20635;-81
2023/12/02 06:04:46;;;;;;;17.60;9.57;;;;;;;;;;4960770;29;20550;-82
2023/12/02 06:07:50;;;;;;;17.57;10.80;;;;;;;;;;4960254;29;20539;-81
2023/12/02 06:10:56;;;;;;;14.60;9.50;;;;;;;;;;4951142;29;20626;-84
2023/12/02 06:14:00;;;;;;;16.23;9.97;;;;;;;;;;4962814;29;20542;-84
2023/12/02 06:17:04;;;;;;;14.90;9.43;;;;;;;;;;4963310;29;20535;-82
2023/12/02 06:20:10;;;;;;;13.83;8.33;;;;;;;;;;4960742;28;20655;-84
2023/12/02 06:23:14;;;;;;;13.93;8.43;;;;;;;;;;4959789;29;20550;-86
2023/12/02 06:26:19;;;;;;;18.07;10.23;;;;;;;;;;4960517;29;20595;-83
2023/12/02 06:29:23;;;;;;;16.17;8.83;;;;;;;;;;4962808;29;20925;-84
2023/12/02 06:32:29;;;;;;;15.10;8.40;;;;;;;;;;4961616;29;20560;-84
2023/12/02 06:35:33;;;;;;;12.10;8.47;;;;;;;;;;4950491;29;20543;-82
2023/12/02 06:38:37;;;;;;;18.90;11.23;;;;;;;;;;4950312;29;20543;-83
2023/12/02 06:41:41;;;;;;;15.00;8.97;;;;;;;;;;4961200;29;21209;-83
2023/12/02 06:44:45;;;;;;;12.40;7.90;;;;;;;;;;4961085;29;20548;-83
2023/12/02 06:47:50;;;;;;;14.47;8.97;;;;;;;;;;4959353;29;20529;-83
2023/12/02 06:50:55;;;;;;;15.33;8.37;;;;;;;;;;4962418;29;20631;-85
2023/12/02 06:54:00;;;;;;;12.80;8.37;;;;;;;;;;4961784;29;20567;-82
2023/12/02 06:57:05;;;;;;;13.03;8.50;;;;;;;;;;4962405;29;20568;-81
2023/12/02 07:00:10;;;;;;;15.17;8.50;;;;;;;;;;4961219;29;20622;-82
2023/12/02 07:03:14;;;;;;;15.83;9.03;;;;;;;;;;4962004;29;20567;-83
2023/12/02 07:06:19;;;;;;;14.03;8.60;;;;;;;;;;4957955;29;20639;-83
2023/12/02 07:09:23;;;;;;;16.50;9.33;;;;;;;;;;4959873;29;20563;-84
2023/12/02 07:12:27;;;;;;;13.33;8.33;;;;;;;;;;4947904;29;20555;-83
2023/12/02 07:15:32;;;;;;;13.73;9.07;;;;;;;;;;4960389;29;20567;-82
2023/12/02 07:18:38;;;;;;;16.80;9.33;;;;;;;;;;4958001;29;20570;-83
2023/12/02 07:21:42;;;;;;;15.70;9.10;;;;;;;;;;4958215;28;20649;-81
2023/12/02 07:24:46;;;;;;;15.97;9.20;;;;;;;;;;4960659;29;20885;-80
2023/12/02 07:27:51;;;;;;;15.47;8.70;;;;;;;;;;4948371;29;20539;-81
2023/12/02 07:30:55;;;;;;;13.73;7.43;;;;;;;;;;4959376;29;20631;-83
2023/12/02 07:33:59;;;;;;;19.33;10.37;;;;;;;;;;4960300;29;20539;-82
2023/12/02 07:37:03;;;;;;;14.40;9.07;;;;;;;;;;4970549;28;20900;-81
2023/12/02 07:40:08;;;;;;;12.10;8.13;;;;;;;;;;4958912;29;20619;-81
2023/12/02 07:43:12;;;;;;;13.57;8.47;;;;;;;;;;4947676;29;20540;-84
2023/12/02 07:46:16;;;;;;;14.17;8.53;;;;;;;;;;4947186;29;20599;-84
2023/12/02 07:49:20;;;;;;;13.20;8.33;;;;;;;;;;4938087;29;20564;-85
2023/12/02 07:52:24;;;;;;;16.40;9.57;;;;;;;;;;4947357;29;20567;-81
2023/12/02 07:55:29;;;;;;;16.50;8.63;;;;;;;;;;4957413;29;20568;-82
2023/12/02 07:58:33;;;;;;;12.93;8.83;;;;;;;;;;4957309;29;20556;-83
2023/12/02 08:02:08;;;;;;;16.97;9.93;;;;;;;;;;4953719;23;20679;-83
2023/12/02 08:06:10;;;;;;;13.93;8.80;;;;;;;;;;4931442;29;20565;-83
2023/12/02 08:09:17;;;;;;;13.30;8.37;;;;;;;;;;4938901;29;20560;-82
2023/12/02 08:12:26;;;;;;;16.60;10.53;;;;;;;;;;4920702;29;20554;-83
2023/12/02 08:15:33;;;;;;;15.17;9.43;;;;;;;;;;4919818;29;20557;-83
2023/12/02 08:18:37;;;;;;;15.63;9.40;;;;;;;;;;4908178;29;20545;-83
2023/12/02 08:21:41;;;;;;;17.80;9.70;;;;;;;;;;4921822;29;20635;-83
2023/12/02 08:24:46;;;;;;;19.03;9.50;;;;;;;;;;4921483;29;20568;-83
2023/12/02 08:27:50;;;;;;;15.57;9.53;;;;;;;;;;4912211;29;20595;-83
2023/12/02 08:30:54;;;;;;;15.60;9.90;;;;;;;;;;4923835;29;21220;-84
2023/12/02 08:33:59;;;;;;;19.17;10.03;;;;;;;;;;4923233;29;20569;-84
2023/12/02 08:37:04;;;;;;;18.53;10.37;;;;;;;;;;4922297;29;20556;-84
2023/12/02 08:40:08;;;;;;;18.33;10.03;;;;;;;;;;4923247;29;20623;-85
2023/12/02 08:43:12;;;;;;;17.37;10.03;;;;;;;;;;4923488;29;21136;-84
2023/12/02 08:46:16;;;;;;;18.10;10.43;;;;;;;;;;4922210;29;20611;-83
2023/12/02 08:49:21;;;;;;;18.40;10.57;;;;;;;;;;4911902;29;20572;-83
2023/12/02 08:52:26;;;;;;;17.23;10.27;;;;;;;;;;4900600;29;20577;-84
2023/12/02 08:55:30;;;;;;;19.27;10.07;;;;;;;;;;4921639;29;20564;-84
2023/12/02 08:58:35;;;;;;;15.90;9.83;;;;;;;;;;4922663;29;20576;-83
2023/12/02 09:01:39;;;;;;;16.20;9.67;;;;;;;;;;4922664;29;20661;-84
2023/12/02 09:04:43;;;;;;;18.37;10.20;;;;;;;;;;4921963;29;21246;-83
2023/12/02 09:07:47;;;;;;;17.17;10.07;;;;;;;;;;4922131;29;20612;-83
2023/12/02 09:10:52;;;;;;;16.17;9.70;;;;;;;;;;4922533;29;20624;-83
2023/12/02 09:13:56;;;;;;;19.00;9.77;;;;;;;;;;4923506;29;20553;-85
2023/12/02 09:17:00;;;;;;;18.60;10.27;;;;;;;;;;4911583;29;20560;-84
2023/12/02 10:35:43;;;;;;;215.97;77.37;;;;;;;;;;4978133;28;20629;-82
2023/12/02 10:39:07;;;;;;;26.63;15.03;;;;;;;;;;4978425;28;20561;-82
2023/12/02 10:42:29;;;;;;;17.87;11.77;;;;;;;;;;4959408;29;20559;-82
2023/12/02 10:45:36;;;;;;;18.60;12.17;;;;;;;;;;4959934;29;20571;-82
2023/12/02 10:48:41;;;;;;;20.50;11.73;;;;;;;;;;4959341;29;20696;-82
2023/12/02 10:51:50;;;;;;;18.20;10.60;;;;;;;;;;4959399;29;20696;-83
2023/12/02 10:54:58;;;;;;;16.53;10.47;;;;;;;;;;4959462;29;20549;-83
2023/12/02 10:58:05;;;;;;;18.20;10.80;;;;;;;;;;4959643;29;20547;-83
2023/12/02 11:01:10;;;;;;;20.40;11.20;;;;;;;;;;4959539;29;21186;-84
2023/12/02 11:04:23;;;;;;;19.87;11.07;;;;;;;;;;4948851;29;20570;-84
2023/12/02 11:11:58;;;;;;;16.40;9.70;;;;;;;;;;4958722;29;20639;-84
2023/12/02 11:15:04;;;;;;;19.90;10.80;;;;;;;;;;4958178;29;20560;-83
2023/12/02 11:18:14;;;;;;;21.07;10.93;;;;;;;;;;4947272;29;20551;-83
2023/12/02 11:21:53;;;;;;;16.77;10.27;;;;;;;;;;4957451;29;20642;-85
2023/12/02 11:25:23;;;;;;;19.07;10.70;;;;;;;;;;4946521;29;21130;-85
2023/12/02 11:28:30;;;;;;;18.80;10.83;;;;;;;;;;4957760;29;20623;-84
2023/12/02 11:32:08;;;;;;;18.13;11.63;;;;;;;;;;4957569;29;20622;-83
2023/12/02 11:36:02;;;;;;;19.47;11.70;;;;;;;;;;4958535;29;20544;-86
2023/12/02 11:39:33;;;;;;;15.37;10.77;;;;;;;;;;4942407;29;20544;-85
2023/12/02 11:43:10;;;;;;;15.10;10.03;;;;;;;;;;4935729;29;20551;-86
2023/12/02 11:46:24;;;;;;;20.17;11.43;;;;;;;;;;4958078;29;21112;-87
2023/12/02 11:49:41;;;;;;;17.97;10.80;;;;;;;;;;4946642;29;20541;-87
2023/12/02 11:53:07;;;;;;;17.00;10.90;;;;;;;;;;4924808;29;20555;-87
2023/12/02 11:56:22;;;;;;;22.90;13.87;;;;;;;;;;4957713;29;20550;-87
2023/12/02 11:59:40;;;;;;;21.93;13.97;;;;;;;;;;4938163;29;20549;-87
2023/12/02 12:07:35;;;;;;;18.53;11.00;;;;;;;;;;4953103;29;20673;-86
2023/12/02 12:10:49;;;;;;;20.23;11.83;;;;;;;;;;4956506;29;20635;-85
2023/12/02 12:14:16;;;;;;;15.70;10.33;;;;;;;;;;4959139;29;21084;-86
2023/12/02 12:17:31;;;;;;;13.17;9.83;;;;;;;;;;4959561;29;20551;-86
2023/12/02 12:20:37;;;;;;;12.67;8.70;;;;;;;;;;4944775;29;21195;-87
2023/12/02 12:24:09;;;;;;;14.20;9.47;;;;;;;;;;4950149;29;20544;-87
2023/12/02 14:10:20;;;;;;;17.30;10.23;;;;;;;;;;4976005;28;20706;-86
2023/12/02 14:14:21;;;;;;;15.43;10.53;;;;;;;;;;4978144;28;20550;-86
2023/12/02 14:18:41;;;;;;;22.27;12.30;;;;;;;;;;4978447;28;20543;-86
2023/12/02 14:33:15;;;;;;;22.50;11.43;;;;;;;;;;4907640;29;20639;-86
2023/12/02 14:37:42;;;;;;;16.93;10.03;;;;;;;;;;4863937;29;20610;-86
2023/12/02 14:42:05;;;;;;;17.13;9.10;;;;;;;;;;4963291;28;20645;-85
2023/12/02 14:46:15;;;;;;;16.27;10.67;;;;;;;;;;4968367;28;20554;-86
2023/12/02 14:50:09;;;;;;;14.47;9.40;;;;;;;;;;4919747;29;20643;-86
2023/12/02 14:53:17;;;;;;;15.23;10.20;;;;;;;;;;4966971;28;20542;-85
2023/12/02 14:56:27;;;;;;;14.57;9.33;;;;;;;;;;4965904;28;21110;-85
2023/12/02 14:59:33;;;;;;;19.17;12.07;;;;;;;;;;4966139;28;20542;-86
2023/12/02 15:02:42;;;;;;;19.87;13.33;;;;;;;;;;4966315;28;20936;-85
2023/12/02 15:05:48;;;;;;;16.10;9.30;;;;;;;;;;4977226;28;20548;-86
2023/12/02 15:08:52;;;;;;;13.57;8.20;;;;;;;;;;4955482;28;20605;-87
2023/12/02 15:12:01;;;;;;;13.00;8.87;;;;;;;;;;4977563;28;20627;-86
2023/12/02 15:15:05;;;;;;;15.83;9.73;;;;;;;;;;4977728;28;20543;-86
2023/12/02 15:18:19;;;;;;;13.93;9.20;;;;;;;;;;4977333;28;20568;-86
2023/12/02 15:21:23;;;;;;;11.53;7.43;;;;;;;;;;4977200;28;20641;-85
2023/12/02 15:24:27;;;;;;;12.50;8.10;;;;;;;;;;4977885;28;20556;-85
2023/12/02 15:27:54;;;;;;;11.87;7.27;;;;;;;;;;4966241;28;20555;-86
2023/12/02 15:31:22;;;;;;;8.27;6.23;;;;;;;;;;4978812;28;20633;-86
2023/12/02 15:35:04;;;;;;;11.60;5.93;;;;;;;;;;4910388;28;20611;-86
2023/12/02 15:38:23;;;;;;;11.13;6.80;;;;;;;;;;4977845;28;20542;-86
2023/12/02 15:41:42;;;;;;;;;;;;;;;;;;;;;
2023/12/02 15:45:20;;;;;;;17.30;10.83;;;;;;;;;;4978775;28;20543;-87
2023/12/02 15:48:58;;;;;;;12.03;7.10;;;;;;;;;;4967225;28;20605;-86
2023/12/02 15:57:17;;;;;;;8.23;5.13;;;;;;;;;;4977218;28;20538;-86
2023/12/02 16:01:18;;;;;;;12.17;7.47;;;;;;;;;;4976145;28;21190;-86
2023/12/02 16:05:25;;;;;;;17.00;7.67;;;;;;;;;;4917950;28;20621;-87
2023/12/02 16:13:11;;;;;;;8.00;5.40;;;;;;;;;;4976880;28;20543;-86
2023/12/02 16:21:31;;;;;;;;;;;;;;;;;;;;;
2023/12/02 16:24:58;;;;;;;21.90;10.53;;;;;;;;;;4976798;28;20617;-87
2023/12/02 16:47:04;;;;;;;;;;;;;;;;;;;;;
2023/12/02 17:01:00;;;;;;;21.03;10.20;;;;;;;;;;4977820;28;20983;-85
2023/12/02 17:04:05;;;;;;;16.13;10.57;;;;;;;;;;4979426;28;20562;-86
2023/12/02 17:07:09;;;;;;;9.30;5.90;;;;;;;;;;4979389;28;20549;-84
2023/12/02 17:10:44;;;;;;;10.70;7.53;;;;;;;;;;4977794;28;20657;-84
2023/12/02 17:13:58;;;;;;;11.13;7.03;;;;;;;;;;4977657;28;20568;-85
2023/12/02 17:17:03;;;;;;;11.57;6.47;;;;;;;;;;4967279;28;20904;-85
2023/12/02 17:20:13;;;;;;;8.10;5.60;;;;;;;;;;4977617;28;20629;-85
2023/12/02 17:23:19;;;;;;;7.70;5.27;;;;;;;;;;4977694;28;20538;-85
2023/12/02 17:26:28;;;;;;;7.63;5.20;;;;;;;;;;4977916;28;20539;-86
2023/12/02 17:29:34;;;;;;;7.77;5.60;;;;;;;;;;4966650;28;20594;-84
2023/12/02 17:32:39;;;;;;;8.70;6.10;;;;;;;;;;4978897;28;20543;-84
2023/12/02 17:35:45;;;;;;;10.67;8.27;;;;;;;;;;4977748;28;20543;-84
2023/12/02 17:38:49;;;;;;;10.53;7.20;;;;;;;;;;4977621;28;20629;-84
2023/12/02 17:41:53;;;;;;;7.70;5.70;;;;;;;;;;4977305;28;20625;-84
2023/12/02 17:44:57;;;;;;;9.53;6.13;;;;;;;;;;4977246;28;20546;-84
2023/12/02 17:48:02;;;;;;;9.27;5.50;;;;;;;;;;4966448;28;20565;-85
2023/12/02 17:51:06;;;;;;;8.93;6.03;;;;;;;;;;4965746;28;20634;-85
2023/12/02 17:54:10;;;;;;;8.30;5.90;;;;;;;;;;4977664;28;20538;-83
2023/12/02 17:57:14;;;;;;;7.97;5.43;;;;;;;;;;4975909;28;20542;-85
2023/12/02 18:00:19;;;;;;;8.77;5.73;;;;;;;;;;4976962;28;20610;-85
2023/12/02 18:03:23;;;;;;;7.57;5.20;;;;;;;;;;4966487;28;20562;-87
2023/12/02 18:06:30;;;;;;;7.80;5.07;;;;;;;;;;4977750;28;20550;-87
2023/12/02 18:09:33;;;;;;;8.60;5.50;;;;;;;;;;4977485;28;20594;-86
2023/12/02 18:12:38;;;;;;;6.50;5.20;;;;;;;;;;4977354;28;20550;-86
2023/12/02 18:15:43;;;;;;;7.07;4.87;;;;;;;;;;4966190;28;20547;-87
2023/12/02 18:18:47;;;;;;;7.23;4.73;;;;;;;;;;4966375;28;20542;-86
2023/12/02 18:21:51;;;;;;;7.63;5.13;;;;;;;;;;4967527;28;20614;-85
2023/12/02 18:24:55;;;;;;;7.03;5.30;;;;;;;;;;4968155;28;20538;-86
2023/12/02 18:27:59;;;;;;;9.17;6.20;;;;;;;;;;4978707;28;20889;-84
2023/12/02 18:31:04;;;;;;;8.77;5.80;;;;;;;;;;4979767;28;20618;-86
2023/12/02 18:34:08;;;;;;;6.80;5.60;;;;;;;;;;4978602;28;20542;-84
2023/12/02 18:37:13;;;;;;;9.70;5.50;;;;;;;;;;4968367;28;21083;-84
2023/12/02 18:40:22;;;;;;;8.03;5.80;;;;;;;;;;4978705;28;20625;-84
2023/12/02 18:43:27;;;;;;;8.03;5.43;;;;;;;;;;4967432;28;20535;-84
2023/12/02 18:46:31;;;;;;;6.80;4.93;;;;;;;;;;4967630;28;21087;-85
2023/12/02 18:49:35;;;;;;;7.73;4.80;;;;;;;;;;4967659;28;20590;-85
2023/12/02 18:52:39;;;;;;;6.93;4.60;;;;;;;;;;4967881;28;20881;-84
2023/12/02 18:55:44;;;;;;;7.23;5.40;;;;;;;;;;4978267;28;20543;-85
2023/12/02 18:58:48;;;;;;;7.43;5.10;;;;;;;;;;4966949;28;20550;-85
2023/12/02 19:01:52;;;;;;;8.30;5.57;;;;;;;;;;4967080;28;20955;-84
2023/12/02 19:04:56;;;;;;;9.07;5.57;;;;;;;;;;4968344;28;21074;-84
2023/12/02 19:08:00;;;;;;;8.03;5.90;;;;;;;;;;4979383;28;20546;-85
2023/12/02 19:11:05;;;;;;;11.23;5.87;;;;;;;;;;4957016;28;20662;-85
2023/12/02 19:14:09;;;;;;;7.93;5.87;;;;;;;;;;4979834;28;20557;-85
2023/12/02 19:17:13;;;;;;;11.63;8.10;;;;;;;;;;4980724;28;20543;-84
2023/12/02 19:20:19;;;;;;;8.67;5.90;;;;;;;;;;4966615;28;20638;-85
2023/12/02 19:23:24;;;;;;;9.50;5.90;;;;;;;;;;4967548;28;20543;-84
2023/12/02 19:26:28;;;;;;;9.33;6.50;;;;;;;;;;4979249;28;20539;-85
2023/12/02 19:29:32;;;;;;;7.27;6.13;;;;;;;;;;4967854;28;20598;-84
2023/12/02 19:32:36;;;;;;;9.23;6.80;;;;;;;;;;4968343;28;20539;-85
2023/12/02 19:35:41;;;;;;;10.97;7.37;;;;;;;;;;4968205;28;20543;-84
2023/12/02 19:38:45;;;;;;;11.27;7.30;;;;;;;;;;4979093;28;20554;-85
2023/12/02 19:41:50;;;;;;;10.50;7.30;;;;;;;;;;4979157;28;20623;-86
2023/12/02 19:44:54;;;;;;;11.30;8.30;;;;;;;;;;4985526;28;20553;-86
2023/12/02 19:48:27;;;;;;;10.23;7.77;;;;;;;;;;4967743;28;20893;-84
2023/12/02 19:51:31;;;;;;;12.30;8.07;;;;;;;;;;4978383;28;20644;-84
2023/12/02 19:54:35;;;;;;;11.43;8.20;;;;;;;;;;4977769;28;20549;-85
2023/12/02 19:57:40;;;;;;;11.57;8.27;;;;;;;;;;4979122;28;20535;-84
2023/12/02 20:00:44;;;;;;;12.93;8.07;;;;;;;;;;4978064;28;20618;-84
2023/12/02 20:03:48;;;;;;;13.77;8.30;;;;;;;;;;4966684;28;20559;-84
2023/12/02 20:06:53;;;;;;;10.83;7.60;;;;;;;;;;4966757;28;20912;-83
2023/12/02 20:09:57;;;;;;;11.30;7.67;;;;;;;;;;4977924;28;20686;-85
2023/12/02 20:13:01;;;;;;;11.93;7.83;;;;;;;;;;4967185;28;20912;-84
2023/12/02 20:16:08;;;;;;;10.13;7.00;;;;;;;;;;4978686;28;20551;-84
2023/12/02 20:19:12;;;;;;;11.13;7.27;;;;;;;;;;4978744;28;20559;-84
2023/12/02 20:22:16;;;;;;;10.77;7.13;;;;;;;;;;4970493;28;21200;-83
2023/12/02 20:25:20;;;;;;;8.73;6.40;;;;;;;;;;4970381;28;20552;-85
2023/12/02 20:28:24;;;;;;;8.13;6.27;;;;;;;;;;4981882;28;20546;-84
2023/12/02 20:31:29;;;;;;;10.70;6.60;;;;;;;;;;4970550;28;20653;-83
2023/12/02 20:34:33;;;;;;;8.30;5.80;;;;;;;;;;4981840;28;21104;-84
2023/12/02 20:37:37;;;;;;;6.73;4.80;;;;;;;;;;4981340;28;20543;-84
2023/12/02 20:40:41;;;;;;;8.10;5.83;;;;;;;;;;4981301;28;20622;-84
2023/12/02 20:43:46;;;;;;;6.87;5.10;;;;;;;;;;4970235;28;20538;-84
2023/12/02 20:46:50;;;;;;;7.50;4.80;;;;;;;;;;4969355;28;20546;-83
2023/12/02 20:49:57;;;;;;;5.97;4.77;;;;;;;;;;4981445;28;20598;-83
2023/12/02 20:53:00;;;;;;;5.47;4.83;;;;;;;;;;4969441;28;20567;-85
2023/12/02 20:56:06;;;;;;;5.87;4.40;;;;;;;;;;4982431;28;20559;-85
2023/12/02 20:59:10;;;;;;;5.67;4.47;;;;;;;;;;4981159;28;20873;-84
2023/12/02 21:02:14;;;;;;;6.50;4.73;;;;;;;;;;4980879;28;21067;-83
2023/12/02 21:05:19;;;;;;;6.07;4.70;;;;;;;;;;4982470;28;20546;-83
2023/12/02 21:08:24;;;;;;;5.40;4.33;;;;;;;;;;4970772;28;20550;-84
2023/12/02 21:11:28;;;;;;;6.03;4.40;;;;;;;;;;4970073;28;20658;-85
2023/12/02 21:14:33;;;;;;;6.40;4.53;;;;;;;;;;4981684;28;21087;-83
2023/12/02 21:17:37;;;;;;;5.37;4.30;;;;;;;;;;4980233;28;20543;-83
2023/12/02 21:20:41;;;;;;;6.07;4.63;;;;;;;;;;4979385;28;20610;-83
2023/12/02 21:23:45;;;;;;;7.87;4.80;;;;;;;;;;4979773;28;20543;-83
2023/12/02 21:26:49;;;;;;;5.60;4.23;;;;;;;;;;4958325;28;20543;-83
2023/12/02 21:29:53;;;;;;;10.63;6.20;;;;;;;;;;4980700;28;20595;-83
2023/12/02 21:32:59;;;;;;;16.13;7.50;;;;;;;;;;4979325;28;20565;-83
2023/12/02 21:36:03;;;;;;;9.93;6.43;;;;;;;;;;4969186;28;21115;-83
2023/12/02 21:39:13;;;;;;;8.83;5.57;;;;;;;;;;4978713;28;20546;-84
2023/12/02 21:42:17;;;;;;;6.10;4.53;;;;;;;;;;4980653;28;20535;-83
2023/12/02 21:45:46;;;;;;;6.20;4.67;;;;;;;;;;4979092;28;20543;-84
2023/12/02 21:48:58;;;;;;;7.67;5.13;;;;;;;;;;4967877;28;20542;-84
2023/12/02 21:52:03;;;;;;;7.40;4.90;;;;;;;;;;4957302;28;20988;-84
2023/12/02 21:55:14;;;;;;;5.57;4.60;;;;;;;;;;4980099;28;20551;-84
2023/12/02 21:58:18;;;;;;;5.87;4.60;;;;;;;;;;4957713;28;20531;-84
2023/12/02 22:01:23;;;;;;;5.97;4.90;;;;;;;;;;4958194;28;20622;-85
2023/12/02 22:04:39;;;;;;;6.37;4.97;;;;;;;;;;4969635;28;20547;-84
2023/12/02 22:07:43;;;;;;;6.33;5.17;;;;;;;;;;4979594;28;20543;-85
2023/12/02 22:10:48;;;;;;;6.07;4.57;;;;;;;;;;4957027;28;20658;-85
2023/12/02 22:13:52;;;;;;;8.47;5.60;;;;;;;;;;4977998;28;20543;-84
2023/12/02 22:17:03;;;;;;;6.50;5.30;;;;;;;;;;4967791;28;20546;-83
2023/12/02 22:20:10;;;;;;;7.67;5.63;;;;;;;;;;4967212;28;20606;-84
2023/12/02 22:23:17;;;;;;;6.87;4.97;;;;;;;;;;4956438;28;20559;-85
2023/12/02 22:26:21;;;;;;;7.57;5.33;;;;;;;;;;4978213;28;20539;-84
2023/12/02 22:29:28;;;;;;;7.43;5.57;;;;;;;;;;4978137;28;20542;-84
2023/12/02 22:32:32;;;;;;;8.47;5.50;;;;;;;;;;4978143;28;20535;-85
2023/12/02 22:35:42;;;;;;;6.20;5.10;;;;;;;;;;4979193;28;20887;-84
2023/12/02 22:38:48;;;;;;;7.50;5.67;;;;;;;;;;4978607;28;20539;-83